Time;durP1;ratioP1;P1;durP2;ratioP2;P2;SDS_P1;SDS_P2;PMS_P1;PMS_P2;Temp;Humidity;BMP_temperature;BMP_pressure;BME280_temperature;BME280_humidity;BME280_pressure;Samples;Min_cycle;Max_cycle;Signal;HPM_P1;HPM_P2
2021/03/24 00:02:13;;;;;;;77.32;16.15;;;0.70;1.00;;;;;;5136097;27;20226;-67
2021/03/24 00:04:40;;;;;;;75.82;17.05;;;0.70;1.00;;;;;;5136651;27;20307;-67
2021/03/24 00:07:06;;;;;;;78.20;17.35;;;0.70;1.00;;;;;;5136388;27;20269;-67
2021/03/24 00:09:33;;;;;;;74.53;16.77;;;0.70;1.00;;;;;;5136215;27;20207;-67
2021/03/24 00:11:59;;;;;;;78.70;16.20;;;0.70;1.00;;;;;;5136625;27;20205;-67
2021/03/24 00:14:26;;;;;;;76.07;15.88;;;0.70;1.00;;;;;;5136196;27;20242;-67
2021/03/24 00:16:53;;;;;;;77.85;17.63;;;0.70;1.00;;;;;;5135829;27;20339;-67
2021/03/24 00:19:19;;;;;;;76.40;17.02;;;0.70;1.00;;;;;;5136082;27;20235;-67
2021/03/24 00:21:45;;;;;;;78.25;15.52;;;0.70;1.00;;;;;;5136152;27;20227;-67
2021/03/24 00:24:12;;;;;;;76.40;17.35;;;0.70;1.00;;;;;;5135832;27;20759;-67
2021/03/24 00:26:38;;;;;;;74.30;15.00;;;0.60;1.00;;;;;;5135964;27;20202;-67
2021/03/24 00:29:04;;;;;;;81.40;17.48;;;0.60;1.00;;;;;;5136248;27;20223;-67
2021/03/24 00:31:32;;;;;;;75.32;17.23;;;0.60;1.00;;;;;;5135734;27;20282;-67
2021/03/24 00:33:58;;;;;;;77.20;16.98;;;0.60;1.00;;;;;;5136021;27;20230;-67
2021/03/24 00:36:24;;;;;;;78.25;18.35;;;0.60;1.00;;;;;;5135602;27;20206;-67
2021/03/24 00:38:52;;;;;;;78.15;18.17;;;0.50;1.00;;;;;;5136069;27;20314;-67
2021/03/24 00:41:18;;;;;;;78.75;16.92;;;0.50;1.00;;;;;;5135568;27;20226;-67
2021/03/24 00:43:44;;;;;;;76.68;17.83;;;0.40;1.00;;;;;;5135426;27;20287;-67
2021/03/24 00:46:11;;;;;;;77.28;16.90;;;0.40;1.00;;;;;;5135404;27;20234;-67
2021/03/24 00:48:38;;;;;;;82.95;19.08;;;0.30;1.00;;;;;;5135583;27;20259;-67
2021/03/24 00:51:06;;;;;;;80.38;16.60;;;0.30;1.00;;;;;;5135932;27;20246;-67
2021/03/24 00:53:33;;;;;;;79.85;18.48;;;0.30;1.00;;;;;;5135787;27;20203;-67
2021/03/24 00:56:00;;;;;;;77.57;17.60;;;0.30;1.00;;;;;;5136037;27;20234;-67
2021/03/24 00:58:26;;;;;;;74.32;15.05;;;0.20;1.00;;;;;;5135379;27;20318;-67
2021/03/24 01:00:53;;;;;;;78.43;16.98;;;0.20;1.00;;;;;;5135922;27;20588;-67
2021/03/24 01:03:20;;;;;;;76.65;16.80;;;0.20;1.00;;;;;;5134852;27;20207;-67
2021/03/24 01:05:49;;;;;;;74.20;15.50;;;0.10;1.00;;;;;;5135862;27;20931;-67
2021/03/24 01:08:18;;;;;;;79.32;18.05;;;0.10;1.00;;;;;;5135575;27;20305;-67
2021/03/24 01:10:44;;;;;;;79.65;17.80;;;0.10;1.00;;;;;;5136032;27;20298;-67
2021/03/24 01:13:13;;;;;;;78.57;17.67;;;0.10;1.00;;;;;;5135108;27;20298;-67
2021/03/24 01:15:39;;;;;;;77.05;16.85;;;0.10;1.00;;;;;;5134984;27;20667;-67
2021/03/24 01:18:06;;;;;;;77.80;17.83;;;0.10;1.00;;;;;;5134887;27;20255;-67
2021/03/24 01:20:36;;;;;;;76.65;16.95;;;0.00;1.00;;;;;;5134905;27;20286;-67
2021/03/24 01:23:04;;;;;;;77.07;16.75;;;0.00;1.00;;;;;;5134838;27;20202;-67
2021/03/24 01:25:30;;;;;;;78.22;16.85;;;0.00;1.00;;;;;;5134698;27;20360;-67
2021/03/24 01:27:58;;;;;;;75.03;17.13;;;0.00;1.00;;;;;;5135006;27;20249;-67
2021/03/24 01:30:26;;;;;;;78.85;17.95;;;-0.10;1.00;;;;;;5134843;27;20360;-67
2021/03/24 01:32:53;;;;;;;74.32;14.90;;;-0.10;1.00;;;;;;5134810;27;20691;-67
2021/03/24 01:35:20;;;;;;;78.90;17.13;;;-0.10;1.00;;;;;;5134431;27;20258;-67
2021/03/24 01:37:47;;;;;;;78.05;17.13;;;-0.20;1.00;;;;;;5134547;27;20229;-67
2021/03/24 01:40:24;;;;;;;79.60;19.63;;;-0.20;1.00;;;;;;5134253;27;20199;-67
2021/03/24 01:42:51;;;;;;;81.70;18.13;;;-0.20;1.00;;;;;;5134540;27;20306;-67
2021/03/24 01:46:07;;;;;;;81.45;19.67;;;-0.20;1.00;;;;;;5134448;27;20243;-67
2021/03/24 01:48:33;;;;;;;80.88;18.55;;;-0.20;1.00;;;;;;5134128;27;20222;-66
2021/03/24 01:51:01;;;;;;;78.97;16.48;;;-0.20;1.00;;;;;;5134666;27;20207;-66
2021/03/24 01:53:27;;;;;;;77.43;17.92;;;-0.20;1.00;;;;;;5134384;27;20214;-67
2021/03/24 01:55:54;;;;;;;75.07;16.85;;;-0.30;1.00;;;;;;5134260;27;20593;-67
2021/03/24 01:58:21;;;;;;;78.20;17.20;;;-0.30;1.00;;;;;;5134112;27;20230;-67
2021/03/24 02:00:50;;;;;;;77.93;15.23;;;-0.30;1.00;;;;;;5134060;27;20219;-66
2021/03/24 02:03:16;;;;;;;74.22;17.48;;;-0.30;1.00;;;;;;5133806;27;20296;-67
2021/03/24 02:05:44;;;;;;;79.22;17.00;;;-0.30;1.00;;;;;;5134402;27;20230;-67
2021/03/24 02:08:13;;;;;;;80.38;17.63;;;-0.30;1.00;;;;;;5133859;27;20775;-67
2021/03/24 02:10:47;;;;;;;79.70;18.27;;;-0.30;1.00;;;;;;5133843;27;20267;-67
2021/03/24 02:13:20;;;;;;;81.38;17.90;;;-0.30;1.00;;;;;;5133507;27;20298;-67
2021/03/24 02:15:50;;;;;;;76.60;16.50;;;-0.30;1.00;;;;;;5133560;27;20206;-66
2021/03/24 02:18:18;;;;;;;77.40;17.50;;;-0.30;1.00;;;;;;5134015;27;20229;-67
2021/03/24 02:20:49;;;;;;;77.75;18.17;;;-0.30;1.00;;;;;;5133809;27;20290;-66
2021/03/24 02:23:26;;;;;;;74.97;15.77;;;-0.30;1.00;;;;;;5133652;27;20788;-67
2021/03/24 02:25:58;;;;;;;79.90;17.25;;;-0.30;1.00;;;;;;5133469;27;20289;-67
2021/03/24 02:28:26;;;;;;;81.03;18.30;;;-0.30;1.00;;;;;;5133728;27;20733;-66
2021/03/24 02:30:56;;;;;;;79.80;17.88;;;-0.30;1.00;;;;;;5133711;27;20282;-67
2021/03/24 02:33:24;;;;;;;75.55;16.10;;;-0.30;1.00;;;;;;5133384;27;20206;-66
2021/03/24 02:36:01;;;;;;;77.88;18.15;;;-0.30;1.00;;;;;;5109527;27;20507;-65
2021/03/24 02:38:29;;;;;;;77.15;15.80;;;-0.30;1.00;;;;;;5109110;28;20763;-65
2021/03/24 02:40:57;;;;;;;79.18;17.70;;;-0.40;1.00;;;;;;5109494;28;20204;-65
2021/03/24 02:43:25;;;;;;;80.93;18.38;;;-0.40;1.00;;;;;;5109154;28;20200;-65
2021/03/24 02:45:54;;;;;;;73.93;16.73;;;-0.40;1.00;;;;;;5109436;28;20686;-65
2021/03/24 02:48:23;;;;;;;73.85;15.55;;;-0.40;1.00;;;;;;5109064;28;20231;-66
2021/03/24 02:50:54;;;;;;;76.10;16.67;;;-0.50;1.00;;;;;;5109051;28;20687;-66
2021/03/24 02:53:22;;;;;;;79.03;16.80;;;-0.50;1.00;;;;;;5109426;28;20290;-66
2021/03/24 02:55:50;;;;;;;75.00;16.90;;;-0.50;1.00;;;;;;5109124;28;20249;-66
2021/03/24 02:58:17;;;;;;;79.15;16.33;;;-0.50;1.00;;;;;;5109077;28;20315;-66
2021/03/24 03:00:45;;;;;;;76.80;16.33;;;-0.50;1.00;;;;;;5109079;28;20209;-66
2021/03/24 03:03:17;;;;;;;80.13;17.25;;;-0.60;1.00;;;;;;5108784;28;20640;-66
2021/03/24 03:05:45;;;;;;;82.63;18.23;;;-0.60;1.00;;;;;;5109288;28;20842;-66
2021/03/24 03:08:14;;;;;;;76.13;16.42;;;-0.70;1.00;;;;;;5108999;28;20313;-66
2021/03/24 03:10:49;;;;;;;77.72;18.73;;;-0.70;1.00;;;;;;5108869;28;20239;-66
2021/03/24 03:13:20;;;;;;;79.70;17.67;;;-0.70;1.00;;;;;;5108614;28;20207;-66
2021/03/24 03:15:54;;;;;;;76.53;16.23;;;-0.70;1.00;;;;;;5108612;28;20830;-66
2021/03/24 03:18:25;;;;;;;76.75;17.42;;;-0.70;1.00;;;;;;5108459;28;20719;-66
2021/03/24 03:20:55;;;;;;;81.68;16.95;;;-0.70;1.00;;;;;;5108836;28;20204;-66
2021/03/24 03:23:24;;;;;;;78.45;17.15;;;-0.70;1.00;;;;;;5108656;28;20573;-66
2021/03/24 03:25:57;;;;;;;80.70;16.08;;;-0.80;1.00;;;;;;5108361;28;20208;-66
2021/03/24 03:28:25;;;;;;;77.13;15.52;;;-0.80;1.00;;;;;;5108304;28;20272;-66
2021/03/24 03:30:53;;;;;;;81.05;17.00;;;-0.80;1.00;;;;;;5108763;28;20210;-66
2021/03/24 03:33:24;;;;;;;81.57;19.17;;;-0.90;1.00;;;;;;5108171;28;20299;-66
2021/03/24 03:35:53;;;;;;;78.13;17.70;;;-0.90;1.00;;;;;;5108058;28;20314;-66
2021/03/24 03:38:21;;;;;;;80.50;17.77;;;-0.90;1.00;;;;;;5108175;28;20228;-66
2021/03/24 03:40:49;;;;;;;83.72;18.33;;;-0.90;1.00;;;;;;5108224;28;20295;-66
2021/03/24 03:43:18;;;;;;;81.65;17.15;;;-0.90;1.00;;;;;;5108209;28;20298;-66
2021/03/24 03:45:48;;;;;;;80.85;16.50;;;-0.90;1.00;;;;;;5103582;28;20295;-67
2021/03/24 03:48:16;;;;;;;79.55;17.50;;;-0.90;1.00;;;;;;5094587;28;20223;-65
2021/03/24 03:50:44;;;;;;;84.10;17.38;;;-0.90;1.00;;;;;;5094601;28;20255;-65
2021/03/24 03:53:18;;;;;;;77.30;16.10;;;-0.90;1.00;;;;;;5094300;28;20640;-66
2021/03/24 03:55:48;;;;;;;82.40;19.42;;;-0.90;1.00;;;;;;5094457;28;20323;-65
2021/03/24 03:58:25;;;;;;;80.70;18.55;;;-0.90;1.00;;;;;;5094417;28;20311;-65
2021/03/24 04:00:57;;;;;;;78.40;18.38;;;-1.00;1.00;;;;;;5094370;28;20239;-65
2021/03/24 04:03:34;;;;;;;76.53;16.00;;;-1.00;1.00;;;;;;5094170;28;20239;-65
2021/03/24 04:06:07;;;;;;;80.03;18.85;;;-1.00;1.00;;;;;;5094040;28;20234;-65
2021/03/24 04:08:35;;;;;;;80.35;19.25;;;-1.00;1.00;;;;;;5093913;28;20353;-66
2021/03/24 04:11:06;;;;;;;80.25;17.80;;;-1.00;1.00;;;;;;5094001;28;20236;-66
2021/03/24 04:13:35;;;;;;;77.72;17.63;;;-1.00;1.00;;;;;;5094020;28;20236;-66
2021/03/24 04:16:03;;;;;;;82.47;17.80;;;-1.00;1.00;;;;;;5093941;28;20314;-66
2021/03/24 04:18:34;;;;;;;77.22;16.60;;;-1.00;1.00;;;;;;5093650;28;20726;-65
2021/03/24 04:21:02;;;;;;;85.55;17.67;;;-1.10;1.00;;;;;;5094021;28;20291;-66
2021/03/24 04:23:33;;;;;;;80.47;18.13;;;-1.10;1.00;;;;;;5094100;28;20295;-66
2021/03/24 04:26:05;;;;;;;78.43;16.20;;;-1.10;1.00;;;;;;5094269;28;20196;-65
2021/03/24 04:28:38;;;;;;;78.30;17.42;;;-1.10;1.00;;;;;;5093702;28;20677;-65
2021/03/24 04:31:09;;;;;;;81.05;16.90;;;-1.20;1.00;;;;;;5093534;28;20204;-65
2021/03/24 04:33:35;;;;;;;85.68;19.13;;;-1.20;1.00;;;;;;5093626;28;20270;-66
2021/03/24 04:36:08;;;;;;;74.72;15.95;;;-1.20;1.00;;;;;;5093700;28;20220;-65
2021/03/24 04:38:40;;;;;;;80.50;18.15;;;-1.20;1.00;;;;;;5093520;28;20258;-65
2021/03/24 04:41:12;;;;;;;79.10;18.33;;;-1.20;1.00;;;;;;5093946;28;20215;-65
2021/03/24 04:43:41;;;;;;;77.68;18.67;;;-1.20;1.00;;;;;;5093276;28;20353;-65
2021/03/24 04:46:13;;;;;;;83.80;20.35;;;-1.20;1.00;;;;;;5093287;28;20685;-65
2021/03/24 04:48:42;;;;;;;83.18;18.55;;;-1.20;1.00;;;;;;5093441;28;20316;-65
2021/03/24 04:51:11;;;;;;;80.47;17.70;;;-1.20;1.00;;;;;;5093436;28;20214;-65
2021/03/24 04:53:41;;;;;;;85.70;19.83;;;-1.20;1.00;;;;;;5093034;28;20204;-65
2021/03/24 04:56:10;;;;;;;78.18;17.73;;;-1.20;1.00;;;;;;5093260;28;20724;-65
2021/03/24 04:58:41;;;;;;;81.43;17.30;;;-1.20;1.00;;;;;;5092028;28;20724;-66
2021/03/24 05:01:13;;;;;;;79.15;18.85;;;-1.20;1.00;;;;;;5093250;28;20625;-66
2021/03/24 05:03:43;;;;;;;84.10;18.35;;;-1.30;1.00;;;;;;5092794;28;20204;-66
2021/03/24 05:06:21;;;;;;;83.97;18.40;;;-1.30;1.00;;;;;;5092982;28;20291;-65
2021/03/24 05:08:47;;;;;;;83.85;18.45;;;-1.30;1.00;;;;;;5093033;28;20224;-65
2021/03/24 05:11:21;;;;;;;86.60;18.80;;;-1.20;1.00;;;;;;5093091;28;20210;-65
2021/03/24 05:14:06;;;;;;;85.72;19.95;;;-1.30;1.00;;;;;;5092782;28;20242;-65
2021/03/24 05:16:35;;;;;;;76.10;17.10;;;-1.20;1.00;;;;;;5092738;28;20203;-66
2021/03/24 05:19:03;;;;;;;80.07;18.35;;;-1.30;1.00;;;;;;5092468;28;20716;-65
2021/03/24 05:21:51;;;;;;;80.32;20.15;;;-1.30;1.00;;;;;;5092788;28;20684;-65
2021/03/24 05:24:24;;;;;;;83.25;18.20;;;-1.30;1.00;;;;;;5092785;28;20200;-65
2021/03/24 05:26:53;;;;;;;87.38;20.25;;;-1.30;1.00;;;;;;5092626;28;20223;-65
2021/03/24 05:29:24;;;;;;;86.18;20.00;;;-1.20;1.00;;;;;;5092413;28;20204;-65
2021/03/24 05:31:54;;;;;;;87.68;21.15;;;-1.30;1.00;;;;;;5092708;28;20227;-65
2021/03/24 05:34:25;;;;;;;86.38;18.92;;;-1.20;1.00;;;;;;5092406;28;20293;-65
2021/03/24 05:36:52;;;;;;;83.38;19.30;;;-1.20;1.00;;;;;;5092350;28;20299;-65
2021/03/24 05:39:23;;;;;;;86.30;20.05;;;-1.20;1.00;;;;;;5092353;28;20294;-65
2021/03/24 05:41:56;;;;;;;83.75;20.10;;;-1.20;1.00;;;;;;5092245;28;20208;-65
2021/03/24 05:44:59;;;;;;;88.00;20.95;;;-1.20;1.00;;;;;;5092347;28;20291;-65
2021/03/24 05:47:38;;;;;;;88.07;19.08;;;-1.10;1.00;;;;;;5092418;28;20227;-65
2021/03/24 05:50:49;;;;;;;83.45;20.48;;;-1.10;1.00;;;;;;5091995;28;20292;-65
2021/03/24 05:53:38;;;;;;;88.50;20.50;;;-1.00;1.00;;;;;;5059789;28;20241;-66
2021/03/24 05:56:12;;;;;;;81.50;20.13;;;-1.00;1.00;;;;;;5089543;28;20750;-66
2021/03/24 05:58:48;;;;;;;86.60;19.55;;;-1.00;1.00;;;;;;5091872;28;20228;-66
2021/03/24 06:01:21;;;;;;;81.32;19.30;;;-0.90;1.00;;;;;;5092291;28;20203;-66
2021/03/24 06:03:55;;;;;;;86.43;22.15;;;-0.90;1.00;;;;;;5092104;28;20247;-66
2021/03/24 06:06:47;;;;;;;80.45;19.35;;;-0.80;1.00;;;;;;5092012;28;20291;-66
2021/03/24 06:09:34;;;;;;;82.88;18.65;;;-0.80;1.00;;;;;;5057983;28;20291;-66
2021/03/24 06:12:18;;;;;;;85.22;21.73;;;-0.70;1.00;;;;;;5091978;28;20208;-66
2021/03/24 06:15:16;;;;;;;92.78;21.88;;;-0.60;1.00;;;;;;5091833;28;20255;-67
2021/03/24 06:18:05;;;;;;;85.13;22.50;;;-0.60;1.00;;;;;;5091997;28;20268;-66
2021/03/24 06:20:40;;;;;;;87.75;23.55;;;-0.60;1.00;;;;;;5091745;28;20290;-66
2021/03/24 06:23:32;;;;;;;94.95;23.50;;;-0.50;1.00;;;;;;5091752;28;20618;-66
2021/03/24 06:26:11;;;;;;;87.30;20.83;;;-0.50;1.00;;;;;;5091950;28;20200;-66
2021/03/24 06:28:44;;;;;;;89.00;22.05;;;-0.40;1.00;;;;;;5091606;28;20228;-66
2021/03/24 06:31:45;;;;;;;86.15;21.73;;;-0.40;1.00;;;;;;5091818;28;20265;-66
2021/03/24 06:34:44;;;;;;;89.10;23.52;;;-0.30;1.00;;;;;;5087081;28;20234;-66
2021/03/24 06:37:41;;;;;;;93.97;23.17;;;-0.30;1.00;;;;;;5091513;28;20224;-66
2021/03/24 06:40:29;;;;;;;89.30;22.73;;;-0.20;1.00;;;;;;5091392;28;20290;-66
2021/03/24 06:43:18;;;;;;;92.03;23.58;;;-0.10;1.00;;;;;;5091379;28;20239;-66
2021/03/24 06:45:52;;;;;;;96.60;26.05;;;0.00;1.00;;;;;;5083228;28;20200;-66
2021/03/24 06:48:49;;;;;;;87.57;22.20;;;0.00;1.00;;;;;;5091420;28;20272;-67
2021/03/24 06:51:54;;;;;;;90.93;24.00;;;0.10;1.00;;;;;;5091681;28;20219;-67
2021/03/24 06:55:14;;;;;;;90.15;22.73;;;0.20;1.00;;;;;;5082123;28;20242;-66
2021/03/24 06:58:25;;;;;;;87.70;23.48;;;0.40;1.00;;;;;;5028877;28;20230;-66
2021/03/24 07:01:06;;;;;;;92.68;24.00;;;0.50;1.00;;;;;;5084831;28;20296;-66
2021/03/24 07:04:19;;;;;;;94.30;25.67;;;0.60;1.00;;;;;;5091322;28;20292;-67
2021/03/24 07:07:00;;;;;;;93.10;25.42;;;0.70;1.00;;;;;;5091209;28;20218;-67
2021/03/24 07:09:34;;;;;;;93.72;23.85;;;0.80;1.00;;;;;;5091196;28;20671;-67
2021/03/24 07:12:12;;;;;;;97.70;26.23;;;0.80;1.00;;;;;;5091437;28;20203;-67
2021/03/24 07:15:12;;;;;;;95.80;22.70;;;0.90;1.00;;;;;;5091365;28;20235;-67
2021/03/24 07:18:22;;;;;;;90.95;24.10;;;1.00;1.00;;;;;;5091033;28;20772;-66
2021/03/24 07:21:06;;;;;;;89.30;24.90;;;1.20;1.00;;;;;;5091909;28;20668;-66
2021/03/24 07:24:21;;;;;;;85.70;23.50;;;1.30;1.00;;;;;;5094996;28;20675;-66
2021/03/24 07:27:09;;;;;;;94.15;25.30;;;1.40;1.00;;;;;;5032360;28;20213;-67
2021/03/24 07:29:52;;;;;;;96.50;26.60;;;1.50;1.00;;;;;;5089188;28;20299;-67
2021/03/24 07:32:32;;;;;;;89.55;24.73;;;1.60;1.00;;;;;;5094690;28;20291;-67
2021/03/24 07:35:20;;;;;;;90.22;25.65;;;1.80;1.00;;;;;;5094785;28;20314;-67
2021/03/24 07:38:19;;;;;;;99.13;26.63;;;1.90;1.00;;;;;;5094656;28;20267;-67
2021/03/24 07:41:22;;;;;;;95.65;27.00;;;2.10;1.00;;;;;;5094540;28;20207;-67
2021/03/24 07:44:01;;;;;;;99.47;25.45;;;2.30;1.00;;;;;;5058086;28;20200;-67
2021/03/24 07:46:46;;;;;;;91.93;24.10;;;2.50;1.00;;;;;;5094978;28;20577;-67
2021/03/24 07:49:37;;;;;;;93.47;27.20;;;2.60;1.00;;;;;;5094658;28;20208;-67
2021/03/24 07:52:30;;;;;;;91.05;25.45;;;2.80;1.00;;;;;;5094272;28;20291;-67
2021/03/24 07:55:01;;;;;;;94.40;26.92;;;3.00;1.00;;;;;;5094252;28;20387;-67
2021/03/24 07:57:33;;;;;;;91.35;27.25;;;3.20;1.00;;;;;;5094186;28;20319;-67
2021/03/24 08:00:10;;;;;;;88.45;24.95;;;3.30;1.00;;;;;;5094505;28;20212;-67
2021/03/24 08:03:03;;;;;;;90.50;25.77;;;3.40;1.00;;;;;;5093192;28;20204;-67
2021/03/24 08:05:49;;;;;;;87.30;24.13;;;3.60;1.00;;;;;;5093946;28;20204;-67
2021/03/24 08:08:24;;;;;;;86.60;22.98;;;3.70;1.00;;;;;;5094295;28;20232;-67
2021/03/24 08:11:01;;;;;;;87.55;23.90;;;3.80;1.00;;;;;;5094230;28;20218;-67
2021/03/24 08:14:04;;;;;;;88.85;24.30;;;4.00;1.00;;;;;;5094029;28;20591;-67
2021/03/24 08:17:07;;;;;;;81.45;22.80;;;4.10;1.00;;;;;;5031455;28;20206;-67
2021/03/24 08:20:03;;;;;;;79.30;21.40;;;4.20;1.00;;;;;;5078304;28;20291;-67
2021/03/24 08:22:53;;;;;;;82.70;22.00;;;4.40;1.00;;;;;;5093925;28;20210;-66
2021/03/24 08:25:36;;;;;;;85.25;22.90;;;4.60;1.00;;;;;;5065467;28;20208;-67
2021/03/24 08:28:10;;;;;;;80.07;20.23;;;4.70;1.00;;;;;;5093691;28;20707;-67
2021/03/24 08:30:49;;;;;;;86.78;22.95;;;4.80;1.00;;;;;;5093603;28;20203;-67
2021/03/24 08:33:52;;;;;;;82.70;18.38;;;4.90;1.00;;;;;;5093570;28;20204;-67
2021/03/24 08:36:36;;;;;;;81.93;19.25;;;5.10;1.00;;;;;;5093678;28;20224;-67
2021/03/24 08:39:39;;;;;;;76.68;18.48;;;5.20;1.00;;;;;;5093280;28;20341;-67
2021/03/24 08:42:36;;;;;;;81.70;20.67;;;5.40;1.00;;;;;;5093599;28;20231;-67
2021/03/24 08:45:18;;;;;;;79.72;20.30;;;5.50;1.00;;;;;;5093246;28;20277;-67
2021/03/24 08:47:49;;;;;;;82.00;19.05;;;5.60;1.00;;;;;;5093522;28;20256;-67
2021/03/24 08:50:20;;;;;;;82.13;20.02;;;5.80;1.00;;;;;;5093223;28;20218;-66
2021/03/24 08:52:58;;;;;;;77.72;18.50;;;5.90;1.00;;;;;;5093263;28;20262;-67
2021/03/24 08:55:38;;;;;;;78.78;19.95;;;6.10;1.00;;;;;;5093516;28;20319;-67
2021/03/24 08:58:26;;;;;;;78.93;18.35;;;6.20;1.00;;;;;;5093353;28;20256;-67
2021/03/24 09:01:18;;;;;;;78.05;18.33;;;6.40;1.00;;;;;;5088518;28;20215;-66
2021/03/24 09:04:08;;;;;;;81.60;18.70;;;6.50;1.00;;;;;;5092883;28;20794;-66
2021/03/24 09:06:44;;;;;;;84.07;20.73;;;6.70;1.00;;;;;;5090409;28;20207;-66
2021/03/24 09:09:27;;;;;;;76.20;18.70;;;6.80;1.00;;;;;;5093126;28;20314;-66
2021/03/24 09:12:01;;;;;;;80.20;19.50;;;7.00;1.00;;;;;;5092938;28;20209;-66
2021/03/24 09:14:33;;;;;;;75.50;17.50;;;7.20;1.00;;;;;;5092625;28;20224;-66
2021/03/24 09:17:40;;;;;;;79.23;19.30;;;7.40;1.00;;;;;;5092905;28;20451;-66
2021/03/24 09:20:49;;;;;;;77.40;18.00;;;7.50;1.00;;;;;;5082419;28;20833;-66
2021/03/24 09:23:49;;;;;;;76.90;18.20;;;7.70;1.00;;;;;;5092559;28;20459;-66
2021/03/24 09:26:34;;;;;;;82.40;18.10;;;7.80;1.00;;;;;;5092587;28;20290;-66
2021/03/24 09:29:14;;;;;;;75.23;17.03;;;8.10;1.00;;;;;;5092354;28;20469;-67
2021/03/24 09:32:08;;;;;;;76.43;17.03;;;8.20;1.00;;;;;;5092513;28;20539;-66
2021/03/24 09:35:00;;;;;;;76.10;16.30;;;8.40;1.00;;;;;;5092273;28;21038;-67
2021/03/24 09:37:32;;;;;;;77.83;17.40;;;8.70;1.00;;;;;;5092350;28;20973;-66
2021/03/24 09:40:01;;;;;;;76.70;15.53;;;8.90;1.00;;;;;;5092354;28;20533;-66
2021/03/24 09:42:33;;;;;;;76.40;15.87;;;9.10;1.00;;;;;;5092351;28;20456;-67
2021/03/24 09:45:06;;;;;;;78.10;16.80;;;9.20;1.00;;;;;;5091807;28;20460;-67
2021/03/24 09:47:45;;;;;;;73.90;16.30;;;9.40;1.00;;;;;;5092056;28;20978;-67
2021/03/24 09:50:33;;;;;;;74.40;15.87;;;9.80;1.00;;;;;;5092466;28;20540;-67
2021/03/24 09:53:04;;;;;;;77.40;16.77;;;10.10;1.00;;;;;;5092263;28;20506;-67
2021/03/24 09:55:34;;;;;;;75.67;17.70;;;10.30;1.00;;;;;;5092153;28;20618;-67
2021/03/24 09:58:49;;;;;;;76.00;17.67;;;10.50;1.00;;;;;;5092446;28;20565;-66
2021/03/24 10:01:40;;;;;;;73.77;17.40;;;11.10;1.00;;;;;;5092123;28;20502;-67
2021/03/24 10:04:31;;;;;;;75.73;17.73;;;12.60;1.00;;;;;;5091953;28;20448;-67
2021/03/24 10:07:08;;;;;;;71.57;17.17;;;14.50;1.00;;;;;;5086790;28;20459;-67
2021/03/24 10:09:37;;;;;;;72.37;16.60;;;16.00;1.00;;;;;;5091845;28;20449;-64
2021/03/24 10:12:15;;;;;;;73.67;17.10;;;17.00;1.00;;;;;;5091784;28;20528;-64
2021/03/24 10:14:51;;;;;;;73.67;17.67;;;18.10;1.00;;;;;;5091620;28;20573;-66
2021/03/24 10:17:23;;;;;;;74.27;17.27;;;19.10;1.00;;;;;;5091802;28;20574;-66
2021/03/24 10:19:57;;;;;;;72.37;17.57;;;20.00;1.00;;;;;;5092056;28;20538;-65
2021/03/24 10:22:32;;;;;;;70.40;16.40;;;20.60;1.00;;;;;;5091737;28;20532;-66
2021/03/24 10:25:04;;;;;;;70.40;17.77;;;20.90;1.00;;;;;;5091741;28;20441;-67
2021/03/24 10:27:34;;;;;;;70.27;17.30;;;21.40;1.00;;;;;;5091580;28;20495;-66
2021/03/24 10:30:21;;;;;;;70.17;17.17;;;21.80;1.00;;;;;;5091855;28;20813;-66
2021/03/24 10:32:52;;;;;;;71.57;17.50;;;22.10;1.00;;;;;;5091662;28;20533;-66
2021/03/24 10:35:34;;;;;;;71.40;17.27;;;22.30;1.00;;;;;;5091506;28;20593;-67
2021/03/24 10:38:11;;;;;;;69.00;17.40;;;22.60;1.00;;;;;;5091808;28;20473;-67
2021/03/24 10:40:41;;;;;;;73.37;16.70;;;22.90;1.00;;;;;;5091564;28;20451;-67
2021/03/24 10:43:12;;;;;;;72.90;17.00;;;23.20;1.00;;;;;;5091506;28;20462;-67
2021/03/24 10:45:44;;;;;;;70.43;16.73;;;23.40;1.00;;;;;;5091381;28;20986;-67
2021/03/24 10:48:16;;;;;;;71.40;17.83;;;23.60;1.00;;;;;;5091340;28;20466;-67
2021/03/24 10:50:48;;;;;;;69.93;15.27;;;23.80;1.00;;;;;;5091735;28;20450;-67
2021/03/24 10:53:21;;;;;;;70.10;15.93;;;24.30;1.00;;;;;;5091507;28;20530;-65
2021/03/24 10:56:02;;;;;;;70.87;17.63;;;25.10;1.00;;;;;;5091992;28;20541;-65
2021/03/24 10:58:47;;;;;;;70.50;16.20;;;25.90;1.00;;;;;;5095249;28;20562;-65
2021/03/24 11:01:18;;;;;;;68.60;15.63;;;25.90;1.00;;;;;;5095494;28;20441;-65
2021/03/24 11:04:14;;;;;;;69.60;15.93;;;26.20;1.00;;;;;;5095397;28;20913;-65
2021/03/24 11:06:50;;;;;;;70.17;16.30;;;26.80;1.00;;;;;;5095256;28;20957;-65
2021/03/24 11:09:21;;;;;;;70.47;16.10;;;27.50;1.00;;;;;;5095495;28;20457;-66
2021/03/24 11:11:52;;;;;;;70.73;16.40;;;27.80;1.00;;;;;;5095530;28;20437;-65
2021/03/24 11:14:22;;;;;;;67.47;15.07;;;28.00;1.00;;;;;;5095149;28;20446;-66
2021/03/24 11:16:51;;;;;;;68.37;14.40;;;28.30;1.00;;;;;;5095111;28;20481;-65
2021/03/24 11:19:23;;;;;;;69.30;16.00;;;28.80;1.00;;;;;;5094969;28;20442;-65
2021/03/24 11:22:06;;;;;;;66.97;13.77;;;29.00;1.00;;;;;;5095203;28;20533;-65
2021/03/24 11:24:48;;;;;;;68.20;14.70;;;29.10;1.00;;;;;;5095019;28;20452;-65
2021/03/24 11:27:21;;;;;;;67.90;14.97;;;29.40;1.00;;;;;;5094933;28;20474;-65
2021/03/24 11:30:15;;;;;;;66.97;14.50;;;29.40;1.00;;;;;;5094749;28;20454;-66
2021/03/24 11:32:51;;;;;;;68.70;16.20;;;29.30;1.00;;;;;;5094863;28;20846;-66
2021/03/24 11:35:22;;;;;;;66.87;14.47;;;29.50;1.00;;;;;;5094719;28;20457;-68
2021/03/24 11:37:55;;;;;;;68.60;14.33;;;29.80;1.00;;;;;;5094768;28;20557;-66
2021/03/24 11:40:30;;;;;;;69.63;14.60;;;30.30;1.00;;;;;;5094558;28;20472;-66
2021/03/24 11:43:00;;;;;;;67.00;13.00;;;30.50;1.00;;;;;;5094763;28;20448;-66
2021/03/24 11:45:30;;;;;;;62.67;11.43;;;30.40;1.00;;;;;;5094657;28;20481;-66
2021/03/24 11:48:14;;;;;;;64.43;11.70;;;30.60;1.00;;;;;;5094458;28;20552;-66
2021/03/24 11:50:50;;;;;;;65.77;12.93;;;31.00;1.00;;;;;;5094456;28;20453;-66
2021/03/24 11:53:29;;;;;;;64.17;11.60;;;31.60;1.00;;;;;;5094620;28;20449;-66
2021/03/24 11:55:59;;;;;;;63.67;11.63;;;31.90;1.00;;;;;;5094587;28;20451;-66
2021/03/24 11:58:44;;;;;;;63.90;11.80;;;32.50;1.00;;;;;;5094193;28;20470;-66
2021/03/24 12:01:29;;;;;;;64.60;11.90;;;32.80;1.00;;;;;;5094227;28;20450;-66
2021/03/24 12:04:07;;;;;;;64.17;11.50;;;32.80;1.00;;;;;;5094153;28;20461;-66
2021/03/24 12:06:54;;;;;;;64.37;12.07;;;33.00;1.00;;;;;;5093748;28;20626;-66
2021/03/24 12:09:23;;;;;;;64.10;12.00;;;33.10;1.00;;;;;;5093968;28;20938;-66
2021/03/24 12:11:50;;;;;;;64.00;11.30;;;33.20;1.00;;;;;;5094215;28;20837;-66
2021/03/24 12:14:19;;;;;;;66.07;12.20;;;33.40;1.00;;;;;;5094227;28;20441;-66
2021/03/24 12:16:50;;;;;;;65.20;11.50;;;33.30;1.00;;;;;;5094067;28;20538;-66
2021/03/24 12:19:35;;;;;;;67.73;12.80;;;33.50;1.00;;;;;;5094309;28;20927;-67
2021/03/24 12:22:05;;;;;;;64.37;12.63;;;34.10;1.00;;;;;;5093491;28;20946;-66
2021/03/24 12:24:36;;;;;;;62.20;10.73;;;34.30;1.00;;;;;;5093833;28;20533;-66
2021/03/24 12:27:13;;;;;;;64.00;12.30;;;34.10;1.00;;;;;;5093644;28;20481;-66
2021/03/24 12:29:42;;;;;;;64.10;12.90;;;34.30;1.00;;;;;;5093791;28;20445;-66
2021/03/24 12:32:21;;;;;;;65.00;12.80;;;34.40;1.00;;;;;;5093788;28;20612;-66
2021/03/24 12:34:49;;;;;;;66.50;12.40;;;34.40;1.00;;;;;;5093711;28;20890;-66
2021/03/24 12:37:27;;;;;;;63.83;10.90;;;34.70;1.00;;;;;;5093676;28;20463;-66
2021/03/24 12:40:06;;;;;;;66.43;12.20;;;34.70;1.00;;;;;;5093583;28;20442;-67
2021/03/24 12:42:33;;;;;;;66.10;13.20;;;34.10;1.00;;;;;;5093160;28;20556;-66
2021/03/24 12:45:01;;;;;;;65.77;11.57;;;33.40;1.00;;;;;;5093424;28;20482;-66
2021/03/24 12:47:37;;;;;;;65.07;11.97;;;32.80;1.00;;;;;;5093298;28;20545;-66
2021/03/24 12:50:26;;;;;;;66.40;12.93;;;32.90;1.00;;;;;;5093401;28;20954;-66
2021/03/24 12:52:58;;;;;;;66.90;12.90;;;33.10;1.00;;;;;;5093171;28;20529;-66
2021/03/24 12:55:24;;;;;;;62.93;12.03;;;33.60;1.00;;;;;;5093155;28;20443;-66
2021/03/24 12:58:01;;;;;;;64.50;13.00;;;34.10;1.00;;;;;;5092996;28;20472;-66
2021/03/24 13:00:39;;;;;;;64.87;12.47;;;34.30;1.00;;;;;;5093216;28;20860;-66
2021/03/24 13:03:43;;;;;;;64.57;12.87;;;34.70;1.00;;;;;;5093057;28;20865;-66
2021/03/24 13:06:32;;;;;;;66.47;14.03;;;34.90;1.00;;;;;;5093058;28;20573;-66
2021/03/24 13:09:11;;;;;;;63.83;13.10;;;35.40;1.00;;;;;;5092955;28;20509;-66
2021/03/24 13:11:46;;;;;;;66.17;12.53;;;35.50;1.00;;;;;;5092965;28;20530;-66
2021/03/24 13:14:45;;;;;;;67.73;13.17;;;35.40;1.00;;;;;;5092873;28;20477;-66
2021/03/24 13:17:24;;;;;;;64.33;11.70;;;35.40;1.00;;;;;;5092659;28;20500;-66
2021/03/24 13:20:02;;;;;;;65.50;12.70;;;35.70;1.00;;;;;;5091792;28;20442;-67
2021/03/24 13:22:38;;;;;;;68.60;13.80;;;35.60;1.00;;;;;;5092760;28;20462;-67
2021/03/24 13:25:38;;;;;;;65.33;12.77;;;35.30;1.00;;;;;;5092684;28;20949;-67
2021/03/24 13:28:20;;;;;;;65.70;13.50;;;35.20;1.00;;;;;;5092500;28;20463;-67
2021/03/24 13:30:58;;;;;;;66.33;14.90;;;35.30;1.00;;;;;;5092459;28;20533;-67